Souris, Canada
Current Conditions -  °F | °C
As of 12:00 AM on Sunday 21 Dec 2014 (Local Time) from CYYG Reporting Station
Overcast Overcast  
Wind Chill: 23°   Ceiling: 2300
Heat Index: 30°   Visibility: 15mi
Dew Point: 23°   Wind: 8mph
Humidity: 75%   Direction: 40°NE
Pressure: 30.33"   Gusts: NA
Location:  46.35°N, 62.25°W
Report Text: CYYG 210400Z 04007KT 340V060 15SM OVC023 M01/M05 A3033 RMK SC8 SLP273
Loading
Personal Weather Stations






























Interactive Weather Map New forecast layout! Learn more

10-Day Weather Forecast

Advertisements
Track Severe Weather on mobile